Somerset, Texas
Current Conditions -  °F | °C
As of 3:58 PM on Sunday 23 Nov 2014 (Local Time) from KSKF Reporting Station
Clear Clear  
Wind Chill: 80°   Ceiling: Unl
Heat Index: 80°   Visibility: 10mi
Dew Point: 45°   Wind: 13mph
Humidity: 29%   Direction: 230°SW
Pressure: 29.56"   Gusts: NA
Location:  29.23°N, 98.66°W
Report Text: KSKF 232158Z AUTO 23011KT 10SM CLR 27/07 A2956 RMK AO2 SLP005 T02670071 $
Loading
Personal Weather Stations






























Interactive Weather Map New forecast layout! Learn more

10-Day Weather Forecast

Advertisements
Track Severe Weather on mobile